sensor_id;sensor_type;location;lat;lon;timestamp;P1;durP1;ratioP1;P2;durP2;ratioP2
33206;SDS011;19565;46.602;11.534;2023-05-09T00:00:52;1.23;;;1.13;;
33206;SDS011;19565;46.602;11.534;2023-05-09T00:03:20;1.80;;;0.83;;
33206;SDS011;19565;46.602;11.534;2023-05-09T00:05:48;0.93;;;0.73;;
33206;SDS011;19565;46.602;11.534;2023-05-09T00:08:16;0.33;;;0.30;;
33206;SDS011;19565;46.602;11.534;2023-05-09T00:10:44;0.60;;;0.60;;
33206;SDS011;19565;46.602;11.534;2023-05-09T00:13:12;0.37;;;0.37;;
33206;SDS011;19565;46.602;11.534;2023-05-09T00:15:42;0.60;;;0.60;;
33206;SDS011;19565;46.602;11.534;2023-05-09T00:18:11;0.50;;;0.50;;
33206;SDS011;19565;46.602;11.534;2023-05-09T00:20:40;0.70;;;0.70;;
33206;SDS011;19565;46.602;11.534;2023-05-09T00:23:09;0.20;;;0.20;;
33206;SDS011;19565;46.602;11.534;2023-05-09T00:25:37;0.40;;;0.40;;
33206;SDS011;19565;46.602;11.534;2023-05-09T00:28:05;0.37;;;0.37;;
33206;SDS011;19565;46.602;11.534;2023-05-09T00:30:33;0.30;;;0.30;;
33206;SDS011;19565;46.602;11.534;2023-05-09T00:33:03;0.73;;;0.73;;
33206;SDS011;19565;46.602;11.534;2023-05-09T00:35:31;0.60;;;0.60;;
33206;SDS011;19565;46.602;11.534;2023-05-09T00:38:00;3.90;;;0.93;;
33206;SDS011;19565;46.602;11.534;2023-05-09T00:40:28;0.23;;;0.23;;
33206;SDS011;19565;46.602;11.534;2023-05-09T00:42:57;0.40;;;0.40;;
33206;SDS011;19565;46.602;11.534;2023-05-09T00:45:25;0.43;;;0.37;;
33206;SDS011;19565;46.602;11.534;2023-05-09T00:47:53;1.90;;;1.70;;
33206;SDS011;19565;46.602;11.534;2023-05-09T00:50:24;1.77;;;1.00;;
33206;SDS011;19565;46.602;11.534;2023-05-09T00:52:52;1.27;;;0.50;;
33206;SDS011;19565;46.602;11.534;2023-05-09T00:55:20;0.47;;;0.40;;
33206;SDS011;19565;46.602;11.534;2023-05-09T00:57:48;0.20;;;0.20;;
33206;SDS011;19565;46.602;11.534;2023-05-09T01:00:16;0.67;;;0.67;;
33206;SDS011;19565;46.602;11.534;2023-05-09T01:02:45;0.40;;;0.40;;
33206;SDS011;19565;46.602;11.534;2023-05-09T01:05:18;4.47;;;0.60;;
33206;SDS011;19565;46.602;11.534;2023-05-09T01:07:51;2.50;;;1.03;;
33206;SDS011;19565;46.602;11.534;2023-05-09T01:10:28;0.30;;;0.30;;
33206;SDS011;19565;46.602;11.534;2023-05-09T01:13:02;0.30;;;0.30;;
33206;SDS011;19565;46.602;11.534;2023-05-09T01:15:38;0.53;;;0.53;;
33206;SDS011;19565;46.602;11.534;2023-05-09T01:18:10;1.07;;;0.83;;
33206;SDS011;19565;46.602;11.534;2023-05-09T01:20:44;0.30;;;0.30;;
33206;SDS011;19565;46.602;11.534;2023-05-09T01:23:24;0.43;;;0.40;;
33206;SDS011;19565;46.602;11.534;2023-05-09T01:26:11;1.43;;;1.33;;
33206;SDS011;19565;46.602;11.534;2023-05-09T01:28:57;0.30;;;0.30;;
33206;SDS011;19565;46.602;11.534;2023-05-09T01:31:39;3.60;;;1.53;;
33206;SDS011;19565;46.602;11.534;2023-05-09T01:34:11;0.20;;;0.20;;
33206;SDS011;19565;46.602;11.534;2023-05-09T01:36:41;0.30;;;0.30;;
33206;SDS011;19565;46.602;11.534;2023-05-09T01:39:10;0.63;;;0.63;;
33206;SDS011;19565;46.602;11.534;2023-05-09T01:41:39;0.50;;;0.50;;
33206;SDS011;19565;46.602;11.534;2023-05-09T01:44:09;0.30;;;0.30;;
33206;SDS011;19565;46.602;11.534;2023-05-09T01:46:40;0.37;;;0.37;;
33206;SDS011;19565;46.602;11.534;2023-05-09T01:49:09;0.40;;;0.40;;
33206;SDS011;19565;46.602;11.534;2023-05-09T01:51:38;0.43;;;0.43;;
33206;SDS011;19565;46.602;11.534;2023-05-09T01:54:09;0.30;;;0.30;;
33206;SDS011;19565;46.602;11.534;2023-05-09T01:56:38;0.50;;;0.50;;
33206;SDS011;19565;46.602;11.534;2023-05-09T01:59:09;0.70;;;0.70;;
33206;SDS011;19565;46.602;11.534;2023-05-09T02:01:41;0.50;;;0.50;;
33206;SDS011;19565;46.602;11.534;2023-05-09T02:04:10;0.40;;;0.40;;
33206;SDS011;19565;46.602;11.534;2023-05-09T02:06:39;0.40;;;0.40;;
33206;SDS011;19565;46.602;11.534;2023-05-09T02:09:09;0.60;;;0.60;;
33206;SDS011;19565;46.602;11.534;2023-05-09T02:11:38;0.20;;;0.20;;
33206;SDS011;19565;46.602;11.534;2023-05-09T02:14:06;0.40;;;0.40;;
33206;SDS011;19565;46.602;11.534;2023-05-09T02:16:36;0.87;;;0.40;;
33206;SDS011;19565;46.602;11.534;2023-05-09T02:19:05;0.40;;;0.40;;
33206;SDS011;19565;46.602;11.534;2023-05-09T02:21:33;0.30;;;0.30;;
33206;SDS011;19565;46.602;11.534;2023-05-09T02:24:02;0.77;;;0.60;;
33206;SDS011;19565;46.602;11.534;2023-05-09T02:26:30;1.30;;;0.80;;
33206;SDS011;19565;46.602;11.534;2023-05-09T02:28:59;0.83;;;0.73;;
33206;SDS011;19565;46.602;11.534;2023-05-09T02:31:29;2.73;;;0.83;;
33206;SDS011;19565;46.602;11.534;2023-05-09T02:33:59;0.37;;;0.37;;
33206;SDS011;19565;46.602;11.534;2023-05-09T02:36:29;0.40;;;0.40;;
33206;SDS011;19565;46.602;11.534;2023-05-09T02:38:58;0.33;;;0.33;;
33206;SDS011;19565;46.602;11.534;2023-05-09T02:41:27;1.23;;;0.93;;
33206;SDS011;19565;46.602;11.534;2023-05-09T02:43:56;0.20;;;0.20;;
33206;SDS011;19565;46.602;11.534;2023-05-09T02:46:24;0.53;;;0.53;;
33206;SDS011;19565;46.602;11.534;2023-05-09T02:48:52;0.43;;;0.43;;
33206;SDS011;19565;46.602;11.534;2023-05-09T02:51:22;0.40;;;0.40;;
33206;SDS011;19565;46.602;11.534;2023-05-09T02:53:50;0.50;;;0.50;;
33206;SDS011;19565;46.602;11.534;2023-05-09T02:56:18;1.00;;;0.40;;
33206;SDS011;19565;46.602;11.534;2023-05-09T02:58:46;0.60;;;0.60;;
33206;SDS011;19565;46.602;11.534;2023-05-09T03:01:16;0.30;;;0.30;;
33206;SDS011;19565;46.602;11.534;2023-05-09T03:03:44;0.30;;;0.30;;
33206;SDS011;19565;46.602;11.534;2023-05-09T03:06:13;0.20;;;0.20;;
33206;SDS011;19565;46.602;11.534;2023-05-09T03:08:42;0.53;;;0.53;;
33206;SDS011;19565;46.602;11.534;2023-05-09T03:11:10;0.67;;;0.63;;
33206;SDS011;19565;46.602;11.534;2023-05-09T03:13:38;0.20;;;0.20;;
33206;SDS011;19565;46.602;11.534;2023-05-09T03:16:06;0.33;;;0.33;;
33206;SDS011;19565;46.602;11.534;2023-05-09T03:18:34;0.50;;;0.50;;
33206;SDS011;19565;46.602;11.534;2023-05-09T03:21:02;0.97;;;0.93;;
33206;SDS011;19565;46.602;11.534;2023-05-09T03:23:31;0.33;;;0.33;;
33206;SDS011;19565;46.602;11.534;2023-05-09T03:26:00;0.50;;;0.50;;
33206;SDS011;19565;46.602;11.534;2023-05-09T03:28:28;0.40;;;0.40;;
33206;SDS011;19565;46.602;11.534;2023-05-09T03:30:56;0.40;;;0.40;;
33206;SDS011;19565;46.602;11.534;2023-05-09T03:33:24;0.77;;;0.40;;
33206;SDS011;19565;46.602;11.534;2023-05-09T03:35:53;0.30;;;0.30;;
33206;SDS011;19565;46.602;11.534;2023-05-09T03:38:21;0.40;;;0.40;;
33206;SDS011;19565;46.602;11.534;2023-05-09T03:40:49;0.30;;;0.30;;
33206;SDS011;19565;46.602;11.534;2023-05-09T03:43:21;0.80;;;0.73;;
33206;SDS011;19565;46.602;11.534;2023-05-09T03:45:49;1.07;;;0.60;;
33206;SDS011;19565;46.602;11.534;2023-05-09T03:48:17;1.10;;;0.43;;
33206;SDS011;19565;46.602;11.534;2023-05-09T03:50:45;0.30;;;0.30;;
33206;SDS011;19565;46.602;11.534;2023-05-09T03:53:13;0.40;;;0.40;;
33206;SDS011;19565;46.602;11.534;2023-05-09T03:55:41;0.30;;;0.30;;
33206;SDS011;19565;46.602;11.534;2023-05-09T03:58:10;1.40;;;0.87;;
33206;SDS011;19565;46.602;11.534;2023-05-09T04:00:39;0.30;;;0.30;;
33206;SDS011;19565;46.602;11.534;2023-05-09T04:03:07;0.53;;;0.53;;
33206;SDS011;19565;46.602;11.534;2023-05-09T04:05:38;0.53;;;0.53;;
33206;SDS011;19565;46.602;11.534;2023-05-09T04:08:06;0.20;;;0.20;;
33206;SDS011;19565;46.602;11.534;2023-05-09T04:10:34;1.60;;;0.93;;
33206;SDS011;19565;46.602;11.534;2023-05-09T04:13:02;0.40;;;0.40;;
33206;SDS011;19565;46.602;11.534;2023-05-09T04:15:30;1.83;;;1.13;;
33206;SDS011;19565;46.602;11.534;2023-05-09T04:18:00;3.33;;;0.87;;
33206;SDS011;19565;46.602;11.534;2023-05-09T04:20:28;0.67;;;0.50;;
33206;SDS011;19565;46.602;11.534;2023-05-09T04:22:57;0.20;;;0.20;;
33206;SDS011;19565;46.602;11.534;2023-05-09T04:25:25;0.40;;;0.40;;
33206;SDS011;19565;46.602;11.534;2023-05-09T04:27:54;1.50;;;0.93;;
33206;SDS011;19565;46.602;11.534;2023-05-09T04:30:23;0.77;;;0.50;;
33206;SDS011;19565;46.602;11.534;2023-05-09T04:32:52;0.60;;;0.60;;
33206;SDS011;19565;46.602;11.534;2023-05-09T04:35:22;0.93;;;0.83;;
33206;SDS011;19565;46.602;11.534;2023-05-09T04:37:50;0.43;;;0.43;;
33206;SDS011;19565;46.602;11.534;2023-05-09T04:40:18;0.50;;;0.50;;
33206;SDS011;19565;46.602;11.534;2023-05-09T04:42:46;0.30;;;0.30;;
33206;SDS011;19565;46.602;11.534;2023-05-09T04:45:15;0.63;;;0.63;;
33206;SDS011;19565;46.602;11.534;2023-05-09T04:47:43;0.50;;;0.50;;
33206;SDS011;19565;46.602;11.534;2023-05-09T04:50:11;0.37;;;0.37;;
33206;SDS011;19565;46.602;11.534;2023-05-09T04:52:40;0.67;;;0.60;;
33206;SDS011;19565;46.602;11.534;2023-05-09T04:55:09;3.93;;;1.93;;
33206;SDS011;19565;46.602;11.534;2023-05-09T04:57:37;0.90;;;0.80;;
33206;SDS011;19565;46.602;11.534;2023-05-09T05:00:05;0.40;;;0.40;;
33206;SDS011;19565;46.602;11.534;2023-05-09T05:02:36;2.17;;;1.40;;
33206;SDS011;19565;46.602;11.534;2023-05-09T05:05:05;0.93;;;0.93;;
33206;SDS011;19565;46.602;11.534;2023-05-09T05:07:44;0.30;;;0.30;;
33206;SDS011;19565;46.602;11.534;2023-05-09T05:10:12;0.57;;;0.47;;
33206;SDS011;19565;46.602;11.534;2023-05-09T05:12:40;0.90;;;0.80;;
33206;SDS011;19565;46.602;11.534;2023-05-09T05:15:09;0.40;;;0.40;;
33206;SDS011;19565;46.602;11.534;2023-05-09T05:17:38;0.57;;;0.57;;
33206;SDS011;19565;46.602;11.534;2023-05-09T05:20:06;0.30;;;0.30;;
33206;SDS011;19565;46.602;11.534;2023-05-09T05:22:36;0.60;;;0.60;;
33206;SDS011;19565;46.602;11.534;2023-05-09T05:25:05;0.73;;;0.73;;
33206;SDS011;19565;46.602;11.534;2023-05-09T05:27:34;0.40;;;0.40;;
33206;SDS011;19565;46.602;11.534;2023-05-09T05:30:02;0.50;;;0.50;;
33206;SDS011;19565;46.602;11.534;2023-05-09T05:32:31;0.40;;;0.40;;
33206;SDS011;19565;46.602;11.534;2023-05-09T05:34:59;0.30;;;0.30;;
33206;SDS011;19565;46.602;11.534;2023-05-09T05:37:28;0.90;;;0.90;;
33206;SDS011;19565;46.602;11.534;2023-05-09T05:39:57;1.10;;;0.90;;
33206;SDS011;19565;46.602;11.534;2023-05-09T05:42:26;0.70;;;0.70;;
33206;SDS011;19565;46.602;11.534;2023-05-09T05:44:54;1.20;;;1.10;;
33206;SDS011;19565;46.602;11.534;2023-05-09T05:47:22;0.50;;;0.50;;
33206;SDS011;19565;46.602;11.534;2023-05-09T05:49:50;2.03;;;1.33;;
33206;SDS011;19565;46.602;11.534;2023-05-09T05:52:18;1.23;;;0.73;;
33206;SDS011;19565;46.602;11.534;2023-05-09T05:54:46;0.83;;;0.83;;
33206;SDS011;19565;46.602;11.534;2023-05-09T05:57:14;1.07;;;0.80;;
33206;SDS011;19565;46.602;11.534;2023-05-09T05:59:44;1.50;;;1.40;;
33206;SDS011;19565;46.602;11.534;2023-05-09T06:02:13;0.73;;;0.73;;
33206;SDS011;19565;46.602;11.534;2023-05-09T06:04:41;0.23;;;0.23;;
33206;SDS011;19565;46.602;11.534;2023-05-09T06:07:09;0.60;;;0.60;;
33206;SDS011;19565;46.602;11.534;2023-05-09T06:09:38;0.73;;;0.73;;
33206;SDS011;19565;46.602;11.534;2023-05-09T06:12:06;4.88;;;1.50;;
33206;SDS011;19565;46.602;11.534;2023-05-09T06:14:36;1.20;;;1.00;;
33206;SDS011;19565;46.602;11.534;2023-05-09T06:17:05;1.90;;;1.75;;
33206;SDS011;19565;46.602;11.534;2023-05-09T06:19:34;1.33;;;1.23;;
33206;SDS011;19565;46.602;11.534;2023-05-09T06:22:02;1.85;;;1.17;;
33206;SDS011;19565;46.602;11.534;2023-05-09T06:24:30;1.92;;;1.42;;
33206;SDS011;19565;46.602;11.534;2023-05-09T06:27:01;0.98;;;0.98;;
33206;SDS011;19565;46.602;11.534;2023-05-09T06:29:29;1.35;;;1.25;;
33206;SDS011;19565;46.602;11.534;2023-05-09T06:31:57;1.05;;;0.80;;
33206;SDS011;19565;46.602;11.534;2023-05-09T06:34:27;0.98;;;0.93;;
33206;SDS011;19565;46.602;11.534;2023-05-09T06:36:55;2.60;;;1.13;;
33206;SDS011;19565;46.602;11.534;2023-05-09T06:39:23;1.13;;;1.02;;
33206;SDS011;19565;46.602;11.534;2023-05-09T06:41:51;0.60;;;0.60;;
33206;SDS011;19565;46.602;11.534;2023-05-09T06:44:20;2.45;;;1.20;;
33206;SDS011;19565;46.602;11.534;2023-05-09T06:46:48;3.03;;;1.20;;
33206;SDS011;19565;46.602;11.534;2023-05-09T06:49:16;0.55;;;0.55;;
33206;SDS011;19565;46.602;11.534;2023-05-09T06:51:46;1.58;;;0.95;;
33206;SDS011;19565;46.602;11.534;2023-05-09T06:54:14;0.40;;;0.40;;
33206;SDS011;19565;46.602;11.534;2023-05-09T06:56:42;0.47;;;0.47;;
33206;SDS011;19565;46.602;11.534;2023-05-09T06:59:11;0.40;;;0.40;;
33206;SDS011;19565;46.602;11.534;2023-05-09T07:01:38;1.23;;;0.65;;
33206;SDS011;19565;46.602;11.534;2023-05-09T07:04:07;1.42;;;1.20;;
33206;SDS011;19565;46.602;11.534;2023-05-09T07:06:35;1.02;;;1.02;;
33206;SDS011;19565;46.602;11.534;2023-05-09T07:09:04;1.48;;;0.95;;
33206;SDS011;19565;46.602;11.534;2023-05-09T07:11:35;1.70;;;1.60;;
33206;SDS011;19565;46.602;11.534;2023-05-09T07:14:03;1.17;;;0.98;;
33206;SDS011;19565;46.602;11.534;2023-05-09T07:16:31;0.57;;;0.57;;
33206;SDS011;19565;46.602;11.534;2023-05-09T07:19:02;0.70;;;0.70;;
33206;SDS011;19565;46.602;11.534;2023-05-09T07:21:31;1.00;;;0.95;;
33206;SDS011;19565;46.602;11.534;2023-05-09T07:23:59;0.80;;;0.80;;
33206;SDS011;19565;46.602;11.534;2023-05-09T07:26:29;0.52;;;0.52;;
33206;SDS011;19565;46.602;11.534;2023-05-09T07:28:57;1.08;;;1.02;;
33206;SDS011;19565;46.602;11.534;2023-05-09T07:31:25;1.23;;;1.20;;
33206;SDS011;19565;46.602;11.534;2023-05-09T07:33:53;1.88;;;1.45;;
33206;SDS011;19565;46.602;11.534;2023-05-09T07:36:21;0.93;;;0.93;;
33206;SDS011;19565;46.602;11.534;2023-05-09T07:38:49;0.70;;;0.70;;
33206;SDS011;19565;46.602;11.534;2023-05-09T07:41:18;0.82;;;0.82;;
33206;SDS011;19565;46.602;11.534;2023-05-09T07:43:49;1.20;;;1.20;;
33206;SDS011;19565;46.602;11.534;2023-05-09T07:46:17;1.00;;;1.00;;
33206;SDS011;19565;46.602;11.534;2023-05-09T07:48:45;1.85;;;1.30;;
33206;SDS011;19565;46.602;11.534;2023-05-09T07:51:13;2.20;;;1.35;;
33206;SDS011;19565;46.602;11.534;2023-05-09T07:53:41;2.00;;;1.90;;
33206;SDS011;19565;46.602;11.534;2023-05-09T07:56:09;1.50;;;1.50;;
33206;SDS011;19565;46.602;11.534;2023-05-09T07:58:40;1.67;;;1.58;;
33206;SDS011;19565;46.602;11.534;2023-05-09T08:01:09;1.88;;;1.77;;
33206;SDS011;19565;46.602;11.534;2023-05-09T08:03:37;1.70;;;1.60;;
33206;SDS011;19565;46.602;11.534;2023-05-09T08:06:06;1.50;;;1.50;;
33206;SDS011;19565;46.602;11.534;2023-05-09T08:08:34;2.10;;;2.00;;
33206;SDS011;19565;46.602;11.534;2023-05-09T08:11:04;2.60;;;2.50;;
33206;SDS011;19565;46.602;11.534;2023-05-09T08:13:32;2.80;;;2.70;;
33206;SDS011;19565;46.602;11.534;2023-05-09T08:16:00;3.25;;;3.05;;
33206;SDS011;19565;46.602;11.534;2023-05-09T08:18:29;3.47;;;3.28;;
33206;SDS011;19565;46.602;11.534;2023-05-09T08:20:58;3.53;;;3.22;;
33206;SDS011;19565;46.602;11.534;2023-05-09T08:23:26;4.10;;;3.90;;
33206;SDS011;19565;46.602;11.534;2023-05-09T08:25:55;4.70;;;4.32;;
33206;SDS011;19565;46.602;11.534;2023-05-09T08:28:24;6.20;;;5.80;;
33206;SDS011;19565;46.602;11.534;2023-05-09T08:30:54;8.90;;;8.40;;
33206;SDS011;19565;46.602;11.534;2023-05-09T08:33:23;16.70;;;15.90;;
33206;SDS011;19565;46.602;11.534;2023-05-09T08:35:52;25.17;;;24.08;;
33206;SDS011;19565;46.602;11.534;2023-05-09T08:38:21;26.27;;;25.13;;
33206;SDS011;19565;46.602;11.534;2023-05-09T08:40:50;26.48;;;25.27;;
33206;SDS011;19565;46.602;11.534;2023-05-09T08:43:18;31.55;;;30.15;;
33206;SDS011;19565;46.602;11.534;2023-05-09T08:45:49;33.10;;;31.70;;
33206;SDS011;19565;46.602;11.534;2023-05-09T08:48:20;35.05;;;33.55;;
33206;SDS011;19565;46.602;11.534;2023-05-09T08:50:49;31.98;;;30.58;;
33206;SDS011;19565;46.602;11.534;2023-05-09T08:53:19;32.30;;;30.80;;
33206;SDS011;19565;46.602;11.534;2023-05-09T08:55:47;34.70;;;33.20;;
33206;SDS011;19565;46.602;11.534;2023-05-09T08:58:17;35.40;;;33.90;;
33206;SDS011;19565;46.602;11.534;2023-05-09T09:00:48;51.35;;;49.20;;
33206;SDS011;19565;46.602;11.534;2023-05-09T09:03:16;51.10;;;49.00;;
33206;SDS011;19565;46.602;11.534;2023-05-09T09:05:44;51.45;;;49.33;;
33206;SDS011;19565;46.602;11.534;2023-05-09T09:08:14;54.15;;;51.95;;
33206;SDS011;19565;46.602;11.534;2023-05-09T09:10:45;52.65;;;50.45;;
33206;SDS011;19565;46.602;11.534;2023-05-09T09:13:13;48.75;;;46.65;;
33206;SDS011;19565;46.602;11.534;2023-05-09T09:15:44;50.55;;;48.45;;
33206;SDS011;19565;46.602;11.534;2023-05-09T09:18:15;51.95;;;49.75;;
33206;SDS011;19565;46.602;11.534;2023-05-09T09:20:47;49.65;;;47.55;;
33206;SDS011;19565;46.602;11.534;2023-05-09T09:23:18;52.78;;;50.58;;
33206;SDS011;19565;46.602;11.534;2023-05-09T09:25:48;52.53;;;50.33;;
33206;SDS011;19565;46.602;11.534;2023-05-09T09:28:25;53.10;;;50.90;;
33206;SDS011;19565;46.602;11.534;2023-05-09T09:30:53;56.97;;;54.63;;
33206;SDS011;19565;46.602;11.534;2023-05-09T09:33:21;52.33;;;50.13;;
33206;SDS011;19565;46.602;11.534;2023-05-09T09:35:51;57.90;;;55.50;;
33206;SDS011;19565;46.602;11.534;2023-05-09T09:38:21;51.72;;;49.53;;
33206;SDS011;19565;46.602;11.534;2023-05-09T09:40:54;56.45;;;53.70;;
33206;SDS011;19565;46.602;11.534;2023-05-09T09:43:26;53.92;;;51.63;;
33206;SDS011;19565;46.602;11.534;2023-05-09T09:45:54;62.78;;;60.17;;
33206;SDS011;19565;46.602;11.534;2023-05-09T09:48:23;54.97;;;52.67;;
33206;SDS011;19565;46.602;11.534;2023-05-09T09:50:52;57.35;;;54.95;;
33206;SDS011;19565;46.602;11.534;2023-05-09T09:53:21;56.15;;;53.85;;
33206;SDS011;19565;46.602;11.534;2023-05-09T09:55:57;55.35;;;52.67;;
33206;SDS011;19565;46.602;11.534;2023-05-09T09:58:25;61.15;;;58.50;;
33206;SDS011;19565;46.602;11.534;2023-05-09T10:01:05;55.15;;;52.80;;
33206;SDS011;19565;46.602;11.534;2023-05-09T10:03:34;44.65;;;42.75;;
33206;SDS011;19565;46.602;11.534;2023-05-09T10:06:03;43.67;;;41.78;;
33206;SDS011;19565;46.602;11.534;2023-05-09T10:08:31;46.75;;;44.75;;
33206;SDS011;19565;46.602;11.534;2023-05-09T10:11:01;20.85;;;19.85;;
33206;SDS011;19565;46.602;11.534;2023-05-09T10:13:29;22.40;;;21.30;;
33206;SDS011;19565;46.602;11.534;2023-05-09T10:15:57;20.80;;;19.80;;
33206;SDS011;19565;46.602;11.534;2023-05-09T10:18:27;21.38;;;20.38;;
33206;SDS011;19565;46.602;11.534;2023-05-09T10:20:57;22.67;;;21.58;;
33206;SDS011;19565;46.602;11.534;2023-05-09T10:23:31;22.83;;;21.73;;
33206;SDS011;19565;46.602;11.534;2023-05-09T10:26:06;21.92;;;20.83;;
33206;SDS011;19565;46.602;11.534;2023-05-09T10:28:44;21.23;;;20.23;;
33206;SDS011;19565;46.602;11.534;2023-05-09T10:31:18;22.45;;;21.35;;
33206;SDS011;19565;46.602;11.534;2023-05-09T10:33:52;24.17;;;23.08;;
33206;SDS011;19565;46.602;11.534;2023-05-09T10:36:21;22.42;;;21.33;;
33206;SDS011;19565;46.602;11.534;2023-05-09T10:38:50;24.42;;;23.23;;
33206;SDS011;19565;46.602;11.534;2023-05-09T10:41:22;22.20;;;21.17;;
33206;SDS011;19565;46.602;11.534;2023-05-09T10:43:50;21.75;;;20.75;;
33206;SDS011;19565;46.602;11.534;2023-05-09T10:46:21;22.20;;;21.20;;
33206;SDS011;19565;46.602;11.534;2023-05-09T10:48:50;41.20;;;39.50;;
33206;SDS011;19565;46.602;11.534;2023-05-09T10:51:18;32.10;;;30.70;;
33206;SDS011;19565;46.602;11.534;2023-05-09T10:53:47;31.92;;;30.52;;
33206;SDS011;19565;46.602;11.534;2023-05-09T10:56:25;35.03;;;33.53;;
33206;SDS011;19565;46.602;11.534;2023-05-09T10:58:57;39.13;;;37.53;;
33206;SDS011;19565;46.602;11.534;2023-05-09T11:01:29;41.47;;;39.78;;
33206;SDS011;19565;46.602;11.534;2023-05-09T11:04:00;43.17;;;41.38;;
33206;SDS011;19565;46.602;11.534;2023-05-09T11:06:47;37.97;;;36.38;;
33206;SDS011;19565;46.602;11.534;2023-05-09T11:09:23;35.45;;;33.95;;
33206;SDS011;19565;46.602;11.534;2023-05-09T11:12:07;40.88;;;39.17;;
33206;SDS011;19565;46.602;11.534;2023-05-09T11:14:37;38.72;;;37.13;;
33206;SDS011;19565;46.602;11.534;2023-05-09T11:17:07;38.85;;;37.25;;
33206;SDS011;19565;46.602;11.534;2023-05-09T11:22:25;34.42;;;32.92;;
33206;SDS011;19565;46.602;11.534;2023-05-09T11:25:04;39.88;;;38.28;;
33206;SDS011;19565;46.602;11.534;2023-05-09T11:27:37;35.13;;;33.63;;
33206;SDS011;19565;46.602;11.534;2023-05-09T11:30:09;56.97;;;54.78;;
33206;SDS011;19565;46.602;11.534;2023-05-09T11:32:41;45.08;;;43.28;;
33206;SDS011;19565;46.602;11.534;2023-05-09T11:35:12;38.15;;;36.47;;
33206;SDS011;19565;46.602;11.534;2023-05-09T11:37:45;38.50;;;36.90;;
33206;SDS011;19565;46.602;11.534;2023-05-09T11:40:15;40.65;;;38.95;;
33206;SDS011;19565;46.602;11.534;2023-05-09T11:42:46;39.67;;;38.08;;
33206;SDS011;19565;46.602;11.534;2023-05-09T11:45:15;37.15;;;35.55;;
33206;SDS011;19565;46.602;11.534;2023-05-09T11:47:44;44.72;;;42.92;;
33206;SDS011;19565;46.602;11.534;2023-05-09T11:50:13;37.00;;;35.40;;
33206;SDS011;19565;46.602;11.534;2023-05-09T11:52:42;41.83;;;40.13;;
33206;SDS011;19565;46.602;11.534;2023-05-09T11:55:10;40.10;;;38.50;;
33206;SDS011;19565;46.602;11.534;2023-05-09T11:57:40;35.90;;;34.40;;
33206;SDS011;19565;46.602;11.534;2023-05-09T12:00:12;38.60;;;37.00;;
33206;SDS011;19565;46.602;11.534;2023-05-09T12:02:43;40.03;;;38.17;;
33206;SDS011;19565;46.602;11.534;2023-05-09T12:05:12;37.47;;;35.88;;
33206;SDS011;19565;46.602;11.534;2023-05-09T12:07:42;38.72;;;37.13;;
33206;SDS011;19565;46.602;11.534;2023-05-09T12:10:11;41.25;;;39.55;;
33206;SDS011;19565;46.602;11.534;2023-05-09T12:12:41;42.10;;;40.40;;
33206;SDS011;19565;46.602;11.534;2023-05-09T12:15:12;36.38;;;34.88;;
33206;SDS011;19565;46.602;11.534;2023-05-09T12:17:41;42.88;;;41.08;;
33206;SDS011;19565;46.602;11.534;2023-05-09T12:20:10;50.28;;;48.28;;
33206;SDS011;19565;46.602;11.534;2023-05-09T12:22:41;50.20;;;48.20;;
33206;SDS011;19565;46.602;11.534;2023-05-09T12:25:09;48.38;;;46.42;;
33206;SDS011;19565;46.602;11.534;2023-05-09T12:27:38;41.22;;;39.53;;
33206;SDS011;19565;46.602;11.534;2023-05-09T12:30:07;46.65;;;44.78;;
33206;SDS011;19565;46.602;11.534;2023-05-09T12:32:38;47.05;;;45.15;;
33206;SDS011;19565;46.602;11.534;2023-05-09T12:35:08;44.03;;;42.22;;
33206;SDS011;19565;46.602;11.534;2023-05-09T12:37:36;38.83;;;37.22;;
33206;SDS011;19565;46.602;11.534;2023-05-09T12:40:05;34.20;;;32.70;;
33206;SDS011;19565;46.602;11.534;2023-05-09T12:42:38;40.83;;;39.03;;
33206;SDS011;19565;46.602;11.534;2023-05-09T12:45:09;40.03;;;38.33;;
33206;SDS011;19565;46.602;11.534;2023-05-09T12:47:39;35.88;;;34.38;;
33206;SDS011;19565;46.602;11.534;2023-05-09T12:50:09;33.85;;;32.35;;
33206;SDS011;19565;46.602;11.534;2023-05-09T12:52:39;39.08;;;37.42;;
33206;SDS011;19565;46.602;11.534;2023-05-09T12:55:27;38.58;;;36.90;;
33206;SDS011;19565;46.602;11.534;2023-05-09T12:58:05;36.10;;;34.60;;
33206;SDS011;19565;46.602;11.534;2023-05-09T13:00:42;41.55;;;39.85;;
33206;SDS011;19565;46.602;11.534;2023-05-09T13:03:22;37.13;;;35.10;;
33206;SDS011;19565;46.602;11.534;2023-05-09T13:05:52;35.92;;;34.40;;
33206;SDS011;19565;46.602;11.534;2023-05-09T13:08:21;33.95;;;32.45;;
33206;SDS011;19565;46.602;11.534;2023-05-09T13:10:49;32.88;;;31.48;;
33206;SDS011;19565;46.602;11.534;2023-05-09T13:13:29;34.85;;;33.35;;
33206;SDS011;19565;46.602;11.534;2023-05-09T13:15:57;37.30;;;35.70;;
33206;SDS011;19565;46.602;11.534;2023-05-09T13:18:27;35.72;;;34.17;;
33206;SDS011;19565;46.602;11.534;2023-05-09T13:20:55;38.65;;;36.95;;
33206;SDS011;19565;46.602;11.534;2023-05-09T13:23:23;36.67;;;35.08;;
33206;SDS011;19565;46.602;11.534;2023-05-09T13:25:51;34.63;;;33.13;;
33206;SDS011;19565;46.602;11.534;2023-05-09T13:28:19;36.28;;;34.78;;
33206;SDS011;19565;46.602;11.534;2023-05-09T13:30:47;35.42;;;33.92;;
33206;SDS011;19565;46.602;11.534;2023-05-09T13:33:15;34.35;;;32.85;;
33206;SDS011;19565;46.602;11.534;2023-05-09T13:35:52;37.17;;;35.58;;
33206;SDS011;19565;46.602;11.534;2023-05-09T13:38:20;40.58;;;38.88;;
33206;SDS011;19565;46.602;11.534;2023-05-09T13:40:48;39.42;;;37.72;;
33206;SDS011;19565;46.602;11.534;2023-05-09T13:43:16;36.10;;;34.58;;
33206;SDS011;19565;46.602;11.534;2023-05-09T13:45:44;34.45;;;32.50;;
33206;SDS011;19565;46.602;11.534;2023-05-09T13:48:12;40.83;;;39.13;;
33206;SDS011;19565;46.602;11.534;2023-05-09T13:50:40;42.70;;;40.90;;
33206;SDS011;19565;46.602;11.534;2023-05-09T13:53:10;40.42;;;38.72;;
33206;SDS011;19565;46.602;11.534;2023-05-09T13:55:38;41.70;;;40.00;;
33206;SDS011;19565;46.602;11.534;2023-05-09T13:58:06;44.85;;;43.05;;
33206;SDS011;19565;46.602;11.534;2023-05-09T14:00:34;38.53;;;36.92;;
33206;SDS011;19565;46.602;11.534;2023-05-09T14:03:02;41.15;;;39.45;;
33206;SDS011;19565;46.602;11.534;2023-05-09T14:05:30;43.50;;;41.70;;
33206;SDS011;19565;46.602;11.534;2023-05-09T14:07:58;44.10;;;42.28;;
33206;SDS011;19565;46.602;11.534;2023-05-09T14:10:28;41.47;;;39.78;;
33206;SDS011;19565;46.602;11.534;2023-05-09T14:12:56;38.60;;;37.00;;
33206;SDS011;19565;46.602;11.534;2023-05-09T14:15:24;41.78;;;40.08;;
33206;SDS011;19565;46.602;11.534;2023-05-09T14:17:52;36.17;;;34.67;;
33206;SDS011;19565;46.602;11.534;2023-05-09T14:20:21;37.45;;;35.85;;
33206;SDS011;19565;46.602;11.534;2023-05-09T14:22:49;33.30;;;31.88;;
33206;SDS011;19565;46.602;11.534;2023-05-09T14:25:17;32.90;;;31.50;;
33206;SDS011;19565;46.602;11.534;2023-05-09T14:27:46;31.48;;;29.95;;
33206;SDS011;19565;46.602;11.534;2023-05-09T14:30:14;36.38;;;34.67;;
33206;SDS011;19565;46.602;11.534;2023-05-09T14:32:43;37.45;;;35.85;;
33206;SDS011;19565;46.602;11.534;2023-05-09T14:35:11;35.10;;;33.60;;
33206;SDS011;19565;46.602;11.534;2023-05-09T14:37:39;33.92;;;32.53;;
33206;SDS011;19565;46.602;11.534;2023-05-09T14:40:07;33.50;;;32.10;;